Time;durP1;ratioP1;P1;durP2;ratioP2;P2;SDS_P1;SDS_P2;PMS_P1;PMS_P2;Temp;Humidity;BMP_temperature;BMP_pressure;BME280_temperature;BME280_humidity;BME280_pressure;Samples;Min_cycle;Max_cycle;Signal;HPM_P1;HPM_P2
2021/09/20 00:01:05;;;;;;;8.53;7.07;;;14.10;99.90;;;;;;5130680;27;20546;-66
2021/09/20 00:03:34;;;;;;;7.27;6.57;;;14.10;99.90;;;;;;5130582;27;20437;-66
2021/09/20 00:06:00;;;;;;;7.20;6.50;;;14.00;99.90;;;;;;5130537;27;20518;-66
2021/09/20 00:08:27;;;;;;;8.37;6.97;;;13.90;99.90;;;;;;5130799;27;20523;-66
2021/09/20 00:10:54;;;;;;;7.40;6.50;;;13.90;99.90;;;;;;5130716;27;20455;-66
2021/09/20 00:13:21;;;;;;;9.27;6.17;;;13.90;99.90;;;;;;5130427;27;20444;-66
2021/09/20 00:15:48;;;;;;;7.87;5.97;;;13.90;99.90;;;;;;5130768;27;20467;-66
2021/09/20 00:18:15;;;;;;;8.10;6.97;;;13.90;99.90;;;;;;5130625;27;20801;-66
2021/09/20 00:20:43;;;;;;;9.03;6.17;;;13.80;99.90;;;;;;5130135;27;20449;-66
2021/09/20 00:23:10;;;;;;;8.00;7.20;;;13.90;99.90;;;;;;5130254;27;20448;-66
2021/09/20 00:25:37;;;;;;;7.53;6.50;;;13.80;99.90;;;;;;5130500;27;20482;-66
2021/09/20 00:28:04;;;;;;;7.47;6.50;;;13.80;99.90;;;;;;5130496;27;20822;-66
2021/09/20 00:30:31;;;;;;;8.80;7.90;;;13.90;99.90;;;;;;5130566;27;20802;-66
2021/09/20 00:32:58;;;;;;;7.83;7.00;;;13.90;99.90;;;;;;5130424;27;20479;-66
2021/09/20 00:35:25;;;;;;;7.27;6.37;;;14.00;99.90;;;;;;5130608;27;20462;-66
2021/09/20 00:37:54;;;;;;;9.30;6.20;;;14.00;99.90;;;;;;5130608;27;20444;-66
2021/09/20 00:40:21;;;;;;;7.97;6.40;;;14.00;99.90;;;;;;5132772;27;20845;-66
2021/09/20 00:42:48;;;;;;;7.93;6.50;;;14.00;99.90;;;;;;5133899;27;20470;-66
2021/09/20 00:45:15;;;;;;;8.33;6.37;;;14.00;99.90;;;;;;5133461;27;20480;-66
2021/09/20 00:47:41;;;;;;;7.87;6.83;;;14.00;99.90;;;;;;5134100;27;20443;-66
2021/09/20 00:50:10;;;;;;;8.43;6.90;;;13.90;99.90;;;;;;5133924;27;20901;-66
2021/09/20 00:52:37;;;;;;;9.07;6.80;;;13.80;99.90;;;;;;5133738;27;20458;-66
2021/09/20 00:55:07;;;;;;;8.20;6.50;;;13.80;99.90;;;;;;5133709;27;20450;-66
2021/09/20 00:57:34;;;;;;;7.37;6.67;;;13.80;99.90;;;;;;5133681;27;20452;-66
2021/09/20 01:00:02;;;;;;;8.60;7.63;;;13.80;99.90;;;;;;5133522;27;20455;-67
2021/09/20 01:02:29;;;;;;;9.00;6.20;;;13.80;99.90;;;;;;5133537;27;20476;-66
2021/09/20 01:04:56;;;;;;;9.37;7.77;;;13.80;99.90;;;;;;5133309;27;20449;-66
2021/09/20 01:07:22;;;;;;;7.63;6.73;;;13.70;99.90;;;;;;5133611;27;20444;-66
2021/09/20 01:09:49;;;;;;;7.10;6.40;;;13.80;99.90;;;;;;5133523;27;20475;-66
2021/09/20 01:12:18;;;;;;;7.13;6.30;;;13.80;99.90;;;;;;5133014;27;20968;-66
2021/09/20 01:14:45;;;;;;;7.23;6.43;;;13.90;99.90;;;;;;5133811;27;20444;-66
2021/09/20 01:17:12;;;;;;;8.17;7.33;;;13.80;99.90;;;;;;5133656;27;20465;-66
2021/09/20 01:19:39;;;;;;;8.40;6.97;;;13.80;99.90;;;;;;5131878;27;20452;-66
2021/09/20 01:22:13;;;;;;;6.27;5.67;;;13.80;99.90;;;;;;5132036;27;20436;-66
2021/09/20 01:24:41;;;;;;;7.80;6.27;;;13.80;99.90;;;;;;5133213;27;20535;-67
2021/09/20 01:27:09;;;;;;;7.47;6.10;;;13.80;99.90;;;;;;5133378;27;20502;-66
2021/09/20 01:29:36;;;;;;;9.17;7.57;;;13.80;99.90;;;;;;5132168;27;20449;-66
2021/09/20 01:32:04;;;;;;;7.30;5.90;;;13.80;99.90;;;;;;5132959;27;20440;-66
2021/09/20 01:34:32;;;;;;;7.90;7.10;;;13.80;99.90;;;;;;5132672;27;20858;-66
2021/09/20 01:36:59;;;;;;;9.63;7.30;;;13.80;99.90;;;;;;5133061;27;20460;-66
2021/09/20 01:39:27;;;;;;;8.03;6.97;;;13.70;99.90;;;;;;5132880;27;20446;-66
2021/09/20 01:41:57;;;;;;;9.20;7.20;;;13.70;99.90;;;;;;5132522;27;20818;-66
2021/09/20 01:44:24;;;;;;;9.50;7.77;;;13.60;99.90;;;;;;5132831;27;20540;-66
2021/09/20 01:46:53;;;;;;;8.60;7.07;;;13.60;99.90;;;;;;5132517;27;20871;-66
2021/09/20 01:49:21;;;;;;;9.03;7.63;;;13.50;99.90;;;;;;5132866;27;20462;-66
2021/09/20 01:51:49;;;;;;;10.17;7.90;;;13.60;99.90;;;;;;5132261;27;20452;-66
2021/09/20 01:54:16;;;;;;;9.30;7.53;;;13.60;99.90;;;;;;5133038;27;20451;-66
2021/09/20 01:56:43;;;;;;;9.37;8.30;;;13.60;99.90;;;;;;5132733;27;20455;-66
2021/09/20 01:59:12;;;;;;;7.30;6.60;;;13.60;99.90;;;;;;5133016;27;20439;-66
2021/09/20 02:01:39;;;;;;;8.67;7.77;;;13.60;99.90;;;;;;5132588;27;20449;-65
2021/09/20 02:04:06;;;;;;;8.33;7.50;;;13.60;99.90;;;;;;5132582;27;20523;-66
2021/09/20 02:06:32;;;;;;;8.80;7.60;;;13.60;99.90;;;;;;5132710;27;20843;-65
2021/09/20 02:08:59;;;;;;;8.67;6.63;;;13.50;99.90;;;;;;5132455;27;20445;-66
2021/09/20 02:11:26;;;;;;;7.97;7.10;;;13.50;99.90;;;;;;5132722;27;20516;-66
2021/09/20 02:13:54;;;;;;;8.60;7.70;;;13.40;99.90;;;;;;5132250;27;20428;-66
2021/09/20 02:16:22;;;;;;;10.73;8.73;;;13.50;99.90;;;;;;5132404;27;20449;-66
2021/09/20 02:18:49;;;;;;;10.23;9.23;;;13.50;99.90;;;;;;5132217;27;20436;-66
2021/09/20 02:21:17;;;;;;;10.00;7.97;;;13.50;99.90;;;;;;5132384;27;20455;-66
2021/09/20 02:23:44;;;;;;;11.93;9.10;;;13.50;99.90;;;;;;5132413;27;20814;-66
2021/09/20 02:26:11;;;;;;;10.07;8.30;;;13.50;99.90;;;;;;5131607;27;20480;-66
2021/09/20 02:28:38;;;;;;;9.63;8.67;;;13.50;99.90;;;;;;5132153;27;20433;-66
2021/09/20 02:31:06;;;;;;;9.60;8.60;;;13.50;99.90;;;;;;5131783;27;20442;-66
2021/09/20 02:33:35;;;;;;;8.50;7.60;;;13.50;99.90;;;;;;5131527;27;20504;-67
2021/09/20 02:36:03;;;;;;;8.40;7.60;;;13.50;99.90;;;;;;5132259;27;20455;-66
2021/09/20 02:38:32;;;;;;;9.23;7.10;;;13.50;99.90;;;;;;5131804;27;20447;-66
2021/09/20 02:40:59;;;;;;;10.47;9.43;;;13.50;99.90;;;;;;5131618;27;20448;-66
2021/09/20 02:43:27;;;;;;;9.33;7.47;;;13.50;99.90;;;;;;5131132;27;20442;-66
2021/09/20 02:45:54;;;;;;;10.47;8.40;;;13.40;99.90;;;;;;5131519;27;21097;-66
2021/09/20 02:48:22;;;;;;;8.40;6.97;;;13.40;99.90;;;;;;5131930;27;20440;-66
2021/09/20 02:50:51;;;;;;;10.13;9.13;;;13.40;99.90;;;;;;5132994;27;20456;-66
2021/09/20 02:53:18;;;;;;;10.93;7.63;;;13.50;99.90;;;;;;5134097;27;20441;-66
2021/09/20 02:55:45;;;;;;;8.80;7.90;;;13.60;99.90;;;;;;5133294;27;20464;-66
2021/09/20 02:58:12;;;;;;;8.37;7.33;;;13.70;99.90;;;;;;5131338;27;20440;-66
2021/09/20 03:00:39;;;;;;;8.30;7.23;;;13.70;99.90;;;;;;5131501;27;20535;-66
2021/09/20 03:03:07;;;;;;;10.50;7.10;;;13.60;99.90;;;;;;5130909;27;20511;-67
2021/09/20 03:05:34;;;;;;;9.10;7.27;;;13.60;99.90;;;;;;5131336;27;20517;-66
2021/09/20 03:08:03;;;;;;;7.77;6.73;;;13.60;99.90;;;;;;5131299;27;20433;-66
2021/09/20 03:10:30;;;;;;;9.50;8.53;;;13.60;99.90;;;;;;5131154;27;20441;-66
2021/09/20 03:12:57;;;;;;;8.80;7.43;;;13.60;99.90;;;;;;5130960;27;20449;-66
2021/09/20 03:15:24;;;;;;;8.23;7.33;;;13.60;99.90;;;;;;5131083;27;21176;-66
2021/09/20 03:17:51;;;;;;;9.07;7.30;;;13.60;99.90;;;;;;5131353;27;20436;-67
2021/09/20 03:20:18;;;;;;;10.50;8.80;;;13.50;99.90;;;;;;5131211;27;20450;-66
2021/09/20 03:22:45;;;;;;;8.63;7.27;;;13.50;99.90;;;;;;5130684;27;20432;-66
2021/09/20 03:25:14;;;;;;;9.40;8.40;;;13.50;99.90;;;;;;5132584;27;20432;-66
2021/09/20 03:27:41;;;;;;;9.30;7.37;;;13.40;99.90;;;;;;5132466;27;20483;-67
2021/09/20 03:30:10;;;;;;;9.47;7.47;;;13.40;99.90;;;;;;5132392;27;20436;-66
2021/09/20 03:32:37;;;;;;;9.00;7.10;;;13.40;99.90;;;;;;5130554;27;20436;-66
2021/09/20 03:35:05;;;;;;;9.13;7.33;;;13.40;99.90;;;;;;5130858;27;20497;-66
2021/09/20 03:37:32;;;;;;;8.67;7.40;;;13.40;99.90;;;;;;5130865;27;20439;-66
2021/09/20 03:39:59;;;;;;;8.17;7.30;;;13.30;99.90;;;;;;5130643;27;20455;-67
2021/09/20 03:42:28;;;;;;;7.80;6.90;;;13.30;99.90;;;;;;5130480;27;20552;-66
2021/09/20 03:44:54;;;;;;;11.67;7.10;;;13.30;99.90;;;;;;5130815;27;20459;-66
2021/09/20 03:47:21;;;;;;;9.20;6.90;;;13.40;99.90;;;;;;5130620;27;20492;-67
2021/09/20 03:49:48;;;;;;;9.30;7.77;;;13.40;99.90;;;;;;5130694;27;20722;-66
2021/09/20 03:52:15;;;;;;;8.90;7.90;;;13.20;99.90;;;;;;5130572;27;20439;-66
2021/09/20 03:54:42;;;;;;;8.63;7.67;;;13.20;99.90;;;;;;5130469;27;20933;-66
2021/09/20 03:57:09;;;;;;;8.80;7.10;;;13.20;99.90;;;;;;5130844;27;20444;-66
2021/09/20 03:59:37;;;;;;;9.77;8.37;;;13.10;99.90;;;;;;5130898;27;20440;-66
2021/09/20 04:02:04;;;;;;;9.70;8.70;;;13.10;99.90;;;;;;5130683;27;20440;-67
2021/09/20 04:04:31;;;;;;;10.83;8.20;;;13.10;99.90;;;;;;5130841;27;20442;-67
2021/09/20 04:07:02;;;;;;;9.73;7.83;;;13.20;99.90;;;;;;5130543;27;20476;-66
2021/09/20 04:09:28;;;;;;;9.80;7.43;;;13.30;99.90;;;;;;5130666;27;20436;-67
2021/09/20 04:11:55;;;;;;;7.20;6.30;;;13.20;99.90;;;;;;5130166;27;20536;-66
2021/09/20 04:14:22;;;;;;;9.57;7.73;;;13.20;99.90;;;;;;5132194;27;20436;-67
2021/09/20 04:16:51;;;;;;;8.80;7.90;;;13.20;99.90;;;;;;5134809;27;20568;-66
2021/09/20 04:19:18;;;;;;;10.97;7.90;;;13.20;99.90;;;;;;5134771;27;20941;-67
2021/09/20 04:21:45;;;;;;;9.87;8.50;;;13.20;99.90;;;;;;5134080;27;20438;-67
2021/09/20 04:24:12;;;;;;;10.43;9.33;;;13.20;99.90;;;;;;5134691;27;20436;-66
2021/09/20 04:26:38;;;;;;;16.30;7.83;;;13.20;99.90;;;;;;5134532;27;20484;-66
2021/09/20 04:29:05;;;;;;;9.00;8.00;;;13.20;99.90;;;;;;5134709;27;20436;-64
2021/09/20 04:31:32;;;;;;;11.53;7.90;;;13.30;99.90;;;;;;5134043;27;20432;-64
2021/09/20 04:34:00;;;;;;;8.63;7.13;;;13.30;99.90;;;;;;5134429;27;20528;-66
2021/09/20 04:36:27;;;;;;;10.23;8.10;;;13.30;99.90;;;;;;5134001;27;20449;-66
2021/09/20 04:38:54;;;;;;;9.10;8.10;;;13.40;99.90;;;;;;5133626;27;20960;-65
2021/09/20 04:41:21;;;;;;;9.43;8.43;;;13.40;99.90;;;;;;5132826;27;20444;-66
2021/09/20 04:43:48;;;;;;;11.70;8.70;;;13.40;99.90;;;;;;5134212;27;20515;-65
2021/09/20 04:46:15;;;;;;;10.00;7.93;;;13.40;99.90;;;;;;5134517;27;20463;-65
2021/09/20 04:48:42;;;;;;;8.63;7.73;;;13.40;99.90;;;;;;5134248;27;20921;-65
2021/09/20 04:51:10;;;;;;;11.63;8.63;;;13.40;99.90;;;;;;5134220;27;20528;-67
2021/09/20 04:53:37;;;;;;;9.43;8.40;;;13.30;99.90;;;;;;5134211;27;20508;-66
2021/09/20 04:56:04;;;;;;;9.20;7.83;;;13.30;99.90;;;;;;5134660;27;20469;-66
2021/09/20 04:58:31;;;;;;;9.77;8.20;;;13.40;99.90;;;;;;5133995;27;20433;-66
2021/09/20 05:00:58;;;;;;;9.73;8.60;;;13.40;99.90;;;;;;5134473;27;20459;-66
2021/09/20 05:03:25;;;;;;;11.07;8.57;;;13.40;99.90;;;;;;5133397;27;20438;-66
2021/09/20 05:05:52;;;;;;;9.20;8.10;;;13.50;99.90;;;;;;5133591;27;20517;-66
2021/09/20 05:08:20;;;;;;;14.00;9.30;;;13.50;99.90;;;;;;5133694;27;20482;-66
2021/09/20 05:10:47;;;;;;;11.40;9.10;;;13.50;99.90;;;;;;5133622;27;20621;-66
2021/09/20 05:13:14;;;;;;;10.50;8.40;;;13.40;99.90;;;;;;5133317;27;20949;-65
2021/09/20 05:15:41;;;;;;;12.37;9.77;;;13.50;99.90;;;;;;5131064;27;20466;-65
2021/09/20 05:18:08;;;;;;;10.77;8.93;;;13.50;99.90;;;;;;5131020;27;20425;-66
2021/09/20 05:20:35;;;;;;;12.70;8.77;;;13.50;99.90;;;;;;5134645;27;20443;-65
2021/09/20 05:23:02;;;;;;;10.07;9.03;;;13.50;99.90;;;;;;5134091;27;20436;-65
2021/09/20 05:25:30;;;;;;;10.23;8.87;;;13.60;99.90;;;;;;5132013;27;20465;-66
2021/09/20 05:27:57;;;;;;;10.07;8.87;;;13.60;99.90;;;;;;5133138;27;20867;-66
2021/09/20 05:30:24;;;;;;;10.43;9.33;;;13.60;99.90;;;;;;5133221;27;20539;-66
2021/09/20 05:32:51;;;;;;;9.90;8.70;;;13.60;99.90;;;;;;5133113;27;20432;-66
2021/09/20 05:35:18;;;;;;;11.00;9.67;;;13.60;99.90;;;;;;5131472;27;20456;-66
2021/09/20 05:37:46;;;;;;;11.03;9.30;;;13.60;99.90;;;;;;5133170;27;20429;-66
2021/09/20 05:40:14;;;;;;;9.90;8.13;;;13.60;99.90;;;;;;5120159;27;20939;-66
2021/09/20 05:42:43;;;;;;;11.47;8.87;;;13.70;99.90;;;;;;5121341;27;20447;-66
2021/09/20 05:45:11;;;;;;;10.43;8.60;;;13.70;99.90;;;;;;5124711;27;20449;-66
2021/09/20 05:47:38;;;;;;;12.67;8.97;;;13.80;99.90;;;;;;5120781;27;20491;-65
2021/09/20 05:50:07;;;;;;;12.30;8.60;;;13.80;99.90;;;;;;5124227;27;20460;-66
2021/09/20 05:52:34;;;;;;;14.23;9.07;;;13.70;99.90;;;;;;5128883;27;20441;-65
2021/09/20 05:55:01;;;;;;;10.60;8.97;;;13.70;99.90;;;;;;5131163;27;20520;-65
2021/09/20 05:57:28;;;;;;;10.07;8.90;;;13.80;99.90;;;;;;5131383;27;20507;-65
2021/09/20 05:59:56;;;;;;;10.17;8.03;;;13.80;99.90;;;;;;5131265;27;20454;-66
2021/09/20 06:02:23;;;;;;;9.00;7.73;;;13.90;99.90;;;;;;5131687;27;20437;-66
2021/09/20 06:04:50;;;;;;;10.77;9.03;;;14.00;99.90;;;;;;5132241;27;20519;-66
2021/09/20 06:07:17;;;;;;;9.43;8.37;;;14.00;99.90;;;;;;5132045;27;20468;-66
2021/09/20 06:09:44;;;;;;;9.60;8.57;;;14.00;99.90;;;;;;5132602;27;20814;-66
2021/09/20 06:12:11;;;;;;;10.83;9.20;;;14.00;99.90;;;;;;5132092;27;20436;-66
2021/09/20 06:14:38;;;;;;;10.47;9.40;;;14.00;99.90;;;;;;5132292;27;20998;-65
2021/09/20 06:17:06;;;;;;;9.90;8.27;;;14.00;99.90;;;;;;5132104;27;20468;-65
2021/09/20 06:19:33;;;;;;;11.63;8.40;;;14.00;99.90;;;;;;5132267;27;20903;-65
2021/09/20 06:22:00;;;;;;;11.77;8.53;;;13.90;99.90;;;;;;5131815;27;20454;-65
2021/09/20 06:24:26;;;;;;;10.23;9.23;;;13.90;99.90;;;;;;5131876;27;21010;-65
2021/09/20 06:26:53;;;;;;;15.10;9.37;;;14.00;99.90;;;;;;5131718;27;20961;-65
2021/09/20 06:29:20;;;;;;;12.17;9.03;;;14.00;99.90;;;;;;5131908;27;20424;-65
2021/09/20 06:31:47;;;;;;;11.87;8.50;;;14.00;99.90;;;;;;5131434;27;20525;-66
2021/09/20 06:34:16;;;;;;;10.47;8.80;;;14.00;99.90;;;;;;5131703;27;21021;-65
2021/09/20 06:36:43;;;;;;;14.33;9.40;;;14.10;99.90;;;;;;5130882;27;20996;-65
2021/09/20 06:39:10;;;;;;;15.50;9.13;;;14.10;99.90;;;;;;5131540;27;20518;-65
2021/09/20 06:41:38;;;;;;;12.70;9.33;;;14.10;99.90;;;;;;5131319;27;20520;-65
2021/09/20 06:44:05;;;;;;;13.27;9.33;;;14.10;99.90;;;;;;5131561;27;20945;-66
2021/09/20 06:46:35;;;;;;;14.00;9.77;;;14.10;99.90;;;;;;5131348;27;20957;-65
2021/09/20 06:49:02;;;;;;;11.60;10.10;;;14.20;99.90;;;;;;5131337;27;20472;-66
2021/09/20 06:51:30;;;;;;;10.57;9.47;;;14.20;99.90;;;;;;5131427;27;20752;-66
2021/09/20 06:53:57;;;;;;;10.77;8.80;;;14.30;99.90;;;;;;5131401;27;20429;-66
2021/09/20 06:56:24;;;;;;;10.37;8.30;;;14.50;99.90;;;;;;5131493;27;20456;-66
2021/09/20 06:58:51;;;;;;;12.47;9.73;;;14.60;99.90;;;;;;5131745;27;20516;-66
2021/09/20 07:01:18;;;;;;;11.37;9.47;;;14.80;99.90;;;;;;5131476;27;20436;-66
2021/09/20 07:03:45;;;;;;;11.47;8.80;;;14.90;99.90;;;;;;5131482;27;20447;-66
2021/09/20 07:06:13;;;;;;;10.67;8.60;;;15.00;99.90;;;;;;5131311;27;20535;-66
2021/09/20 07:08:41;;;;;;;9.60;8.47;;;15.10;99.90;;;;;;5131210;27;20484;-66
2021/09/20 07:11:08;;;;;;;15.97;9.40;;;15.10;99.90;;;;;;5131492;27;20432;-66
2021/09/20 07:13:35;;;;;;;10.80;8.57;;;15.10;99.90;;;;;;5131188;27;20515;-66
2021/09/20 07:16:02;;;;;;;10.17;8.50;;;15.20;99.90;;;;;;5131131;27;21040;-66
2021/09/20 07:18:28;;;;;;;12.10;8.40;;;15.20;99.90;;;;;;5131351;27;20531;-66
2021/09/20 07:20:55;;;;;;;9.90;7.83;;;15.20;99.90;;;;;;5131044;27;20922;-66
2021/09/20 07:23:22;;;;;;;10.83;8.57;;;15.40;99.90;;;;;;5131227;27;20790;-66
2021/09/20 07:25:51;;;;;;;10.07;8.93;;;15.50;99.90;;;;;;5131424;27;20802;-66
2021/09/20 07:28:18;;;;;;;11.00;7.97;;;15.40;99.90;;;;;;5131541;27;20480;-66
2021/09/20 07:30:44;;;;;;;8.93;8.03;;;15.50;99.90;;;;;;5131430;27;20440;-66
2021/09/20 07:33:12;;;;;;;11.17;8.70;;;15.60;99.90;;;;;;5130792;27;20973;-66
2021/09/20 07:35:39;;;;;;;11.03;8.63;;;15.70;99.90;;;;;;5130867;27;20551;-66
2021/09/20 07:38:06;;;;;;;11.03;8.77;;;15.60;99.90;;;;;;5130975;27;20847;-65
2021/09/20 07:40:34;;;;;;;10.00;9.00;;;15.60;99.90;;;;;;5130976;27;20447;-66
2021/09/20 07:43:03;;;;;;;10.73;8.33;;;15.70;99.90;;;;;;5130648;27;20475;-66
2021/09/20 07:45:31;;;;;;;11.60;9.27;;;15.90;99.90;;;;;;5130761;27;20505;-66
2021/09/20 07:47:58;;;;;;;9.97;8.90;;;16.10;99.90;;;;;;5132097;27;20540;-66
2021/09/20 07:50:26;;;;;;;11.53;7.97;;;16.30;99.90;;;;;;5137658;27;20522;-66
2021/09/20 07:52:53;;;;;;;15.10;9.00;;;16.20;99.90;;;;;;5137549;27;20531;-66
2021/09/20 07:55:21;;;;;;;9.53;8.10;;;16.10;99.90;;;;;;5137657;27;20460;-66
2021/09/20 07:57:47;;;;;;;10.07;8.97;;;16.10;99.90;;;;;;5137716;27;20434;-66
2021/09/20 08:00:17;;;;;;;11.47;8.00;;;15.90;99.90;;;;;;5137519;27;20869;-66
2021/09/20 08:02:44;;;;;;;15.32;9.55;;;16.00;99.90;;;;;;5136233;27;20425;-66
2021/09/20 08:05:11;;;;;;;11.10;9.07;;;16.30;99.90;;;;;;5137642;27;20621;-66
2021/09/20 08:07:38;;;;;;;13.13;8.87;;;16.30;99.90;;;;;;5137388;27;20559;-66
2021/09/20 08:10:07;;;;;;;11.87;9.37;;;16.50;99.90;;;;;;5137356;27;20440;-66
2021/09/20 08:12:33;;;;;;;13.03;8.60;;;16.30;99.90;;;;;;5137219;27;20446;-66
2021/09/20 08:15:00;;;;;;;12.50;9.00;;;16.10;99.90;;;;;;5137287;27;20431;-66
2021/09/20 08:17:29;;;;;;;10.70;8.83;;;16.00;99.90;;;;;;5137457;27;20442;-66
2021/09/20 08:19:55;;;;;;;9.37;8.37;;;16.00;99.90;;;;;;5137830;27;20513;-66
2021/09/20 08:22:22;;;;;;;10.53;8.37;;;16.20;99.90;;;;;;5137411;27;20433;-66
2021/09/20 08:24:49;;;;;;;13.13;9.40;;;16.30;99.90;;;;;;5137364;27;20447;-66
2021/09/20 08:27:16;;;;;;;9.97;8.40;;;16.20;99.90;;;;;;5137117;27;20459;-66
2021/09/20 08:29:43;;;;;;;9.97;8.93;;;16.20;99.90;;;;;;5137135;27;20440;-66
2021/09/20 08:32:10;;;;;;;10.40;8.50;;;16.50;99.90;;;;;;5137096;27;20442;-66
2021/09/20 08:34:39;;;;;;;8.90;7.83;;;16.80;99.90;;;;;;5137199;27;20785;-66
2021/09/20 08:37:05;;;;;;;9.07;8.17;;;17.20;99.90;;;;;;5137239;27;20456;-66
2021/09/20 08:39:33;;;;;;;12.17;7.80;;;17.50;99.90;;;;;;5137234;27;20917;-66
2021/09/20 08:42:00;;;;;;;9.60;7.70;;;17.70;99.90;;;;;;5136811;27;20485;-66
2021/09/20 08:44:27;;;;;;;13.80;9.27;;;17.90;99.90;;;;;;5137070;27;20929;-66
2021/09/20 08:46:55;;;;;;;10.43;8.90;;;17.80;99.90;;;;;;5137318;27;20460;-66
2021/09/20 08:49:23;;;;;;;9.00;8.10;;;18.10;99.90;;;;;;5136913;27;20478;-66
2021/09/20 08:51:55;;;;;;;9.63;8.63;;;18.40;99.90;;;;;;5136867;27;20462;-66
2021/09/20 08:54:22;;;;;;;9.97;8.93;;;18.50;99.90;;;;;;5137236;27;20444;-66
2021/09/20 08:56:50;;;;;;;11.87;9.50;;;18.60;99.90;;;;;;5136955;27;20620;-66
2021/09/20 08:59:17;;;;;;;9.73;8.83;;;18.80;99.90;;;;;;5136777;27;20794;-66
2021/09/20 09:01:46;;;;;;;10.73;9.50;;;18.80;99.90;;;;;;5133120;27;20882;-66
2021/09/20 09:04:28;;;;;;;10.83;9.73;;;18.90;99.90;;;;;;5134037;27;20836;-66
2021/09/20 09:07:00;;;;;;;10.60;9.50;;;19.00;99.90;;;;;;5134606;27;20953;-66
2021/09/20 09:09:33;;;;;;;13.77;10.63;;;19.00;99.90;;;;;;5134434;27;20472;-67
2021/09/20 09:12:15;;;;;;;11.10;9.97;;;19.10;99.90;;;;;;5134415;27;20531;-66
2021/09/20 09:14:44;;;;;;;11.03;9.83;;;19.10;99.90;;;;;;5133981;27;20436;-66
2021/09/20 09:17:13;;;;;;;11.10;10.00;;;19.20;99.90;;;;;;5133708;27;20537;-66
2021/09/20 09:19:49;;;;;;;12.30;10.50;;;19.10;99.90;;;;;;5133716;27;20808;-66
2021/09/20 09:22:18;;;;;;;12.43;9.70;;;19.30;99.90;;;;;;5133614;27;20929;-66
2021/09/20 09:24:57;;;;;;;12.57;11.20;;;19.00;99.90;;;;;;5133840;27;20513;-66
2021/09/20 09:27:24;;;;;;;11.73;9.57;;;18.60;99.90;;;;;;5133738;27;20447;-66
2021/09/20 09:30:00;;;;;;;13.57;9.97;;;18.70;99.90;;;;;;5133463;27;20475;-66
2021/09/20 09:32:27;;;;;;;13.00;10.10;;;18.20;99.90;;;;;;5133186;27;20442;-66
2021/09/20 09:34:57;;;;;;;12.93;11.57;;;17.90;99.90;;;;;;5133679;27;20437;-66
2021/09/20 09:37:25;;;;;;;12.43;11.13;;;17.50;99.90;;;;;;5133553;27;20525;-66
2021/09/20 09:40:12;;;;;;;12.40;11.10;;;17.40;99.90;;;;;;5133110;27;20439;-66
2021/09/20 09:42:40;;;;;;;11.90;10.60;;;17.60;99.90;;;;;;5132857;27;20432;-66
2021/09/20 09:45:26;;;;;;;12.07;10.80;;;17.60;99.90;;;;;;5133145;27;20433;-66
2021/09/20 09:48:10;;;;;;;11.43;10.23;;;17.80;99.90;;;;;;5133107;27;20437;-66
2021/09/20 09:50:43;;;;;;;12.60;10.43;;;17.90;99.90;;;;;;5133281;27;20443;-66
2021/09/20 09:53:22;;;;;;;14.10;11.30;;;17.90;99.90;;;;;;5132560;27;20436;-66
2021/09/20 09:55:49;;;;;;;14.30;11.33;;;17.60;99.90;;;;;;5132858;27;20466;-67
2021/09/20 09:58:17;;;;;;;15.27;12.30;;;17.50;99.90;;;;;;5132840;27;20989;-66
2021/09/20 10:00:44;;;;;;;14.33;12.10;;;17.20;99.90;;;;;;5132911;27;20428;-66
2021/09/20 10:03:12;;;;;;;12.67;11.20;;;17.10;99.90;;;;;;5132533;27;20447;-66
2021/09/20 10:05:39;;;;;;;13.00;11.60;;;16.90;99.90;;;;;;5132643;27;20834;-66
2021/09/20 10:08:12;;;;;;;14.77;11.90;;;16.90;99.90;;;;;;5132692;27;20472;-66
2021/09/20 10:10:40;;;;;;;14.50;10.87;;;16.90;99.90;;;;;;5132513;27;20444;-66
2021/09/20 10:13:08;;;;;;;13.70;10.73;;;16.90;99.90;;;;;;5131319;27;20443;-66
2021/09/20 10:15:36;;;;;;;13.60;12.20;;;16.90;99.90;;;;;;5132341;27;20463;-66
2021/09/20 10:18:04;;;;;;;14.37;12.87;;;17.00;99.90;;;;;;5132286;27;20444;-66
2021/09/20 10:20:31;;;;;;;13.30;11.90;;;17.10;99.90;;;;;;5132391;27;20797;-66
2021/09/20 10:22:58;;;;;;;16.00;12.43;;;17.30;99.90;;;;;;5131970;27;20958;-66
2021/09/20 10:25:29;;;;;;;14.73;12.00;;;17.10;99.90;;;;;;5132359;27;20467;-66
2021/09/20 10:27:57;;;;;;;16.20;14.07;;;17.00;99.90;;;;;;5132184;27;20432;-66
2021/09/20 10:30:26;;;;;;;15.27;12.93;;;17.10;99.90;;;;;;5132122;27;20967;-66
2021/09/20 10:32:55;;;;;;;16.37;12.87;;;17.00;99.90;;;;;;5131666;27;20450;-66
2021/09/20 10:35:32;;;;;;;15.93;13.27;;;17.00;99.90;;;;;;5132156;27;20478;-66
2021/09/20 10:38:03;;;;;;;18.00;13.70;;;17.00;99.90;;;;;;5131957;27;20448;-66
2021/09/20 10:40:32;;;;;;;15.77;13.33;;;16.80;99.90;;;;;;5131863;27;20894;-66
2021/09/20 10:43:07;;;;;;;16.07;13.30;;;16.80;99.90;;;;;;5131514;27;20436;-66
2021/09/20 10:45:55;;;;;;;17.33;13.10;;;16.80;99.90;;;;;;5131978;27;20455;-66
2021/09/20 10:48:26;;;;;;;16.60;12.07;;;16.90;99.90;;;;;;5131946;27;20572;-66
2021/09/20 10:50:55;;;;;;;14.17;12.70;;;16.90;99.90;;;;;;5131993;27;20524;-66
2021/09/20 10:53:28;;;;;;;14.03;12.07;;;16.90;99.90;;;;;;5131636;27;20445;-66
2021/09/20 10:56:14;;;;;;;13.80;12.40;;;17.00;99.90;;;;;;5131965;27;20913;-67
2021/09/20 10:58:43;;;;;;;17.20;13.10;;;17.00;99.90;;;;;;5131948;27;20443;-66
2021/09/20 11:01:30;;;;;;;15.90;12.37;;;17.10;99.90;;;;;;5131642;27;20794;-66
2021/09/20 11:03:59;;;;;;;14.40;12.57;;;17.20;99.90;;;;;;5131399;27;20873;-66
2021/09/20 11:06:28;;;;;;;20.93;13.83;;;17.20;99.90;;;;;;5131567;27;20459;-66
2021/09/20 11:09:32;;;;;;;13.77;12.37;;;17.50;99.90;;;;;;5131482;27;20476;-66
2021/09/20 11:12:06;;;;;;;13.73;12.33;;;17.90;99.90;;;;;;5131020;27;20446;-66
2021/09/20 11:14:45;;;;;;;13.97;11.50;;;18.00;99.90;;;;;;5131471;27;20439;-66
2021/09/20 11:17:26;;;;;;;15.03;12.47;;;17.80;99.90;;;;;;5131183;27;20482;-66
2021/09/20 11:19:55;;;;;;;13.60;12.20;;;17.70;99.90;;;;;;5131169;27;20519;-66
2021/09/20 11:22:28;;;;;;;13.20;11.80;;;17.90;99.90;;;;;;5130744;27;20444;-66
2021/09/20 11:25:02;;;;;;;12.67;11.37;;;18.00;99.90;;;;;;5130966;27;20429;-66
2021/09/20 11:27:33;;;;;;;14.43;11.77;;;17.90;99.90;;;;;;5131215;27;20472;-66
2021/09/20 11:30:02;;;;;;;15.20;11.93;;;17.80;99.90;;;;;;5130969;27;20908;-66
2021/09/20 11:32:30;;;;;;;15.27;11.83;;;17.90;99.90;;;;;;5130754;27;20447;-66
2021/09/20 11:34:58;;;;;;;14.30;11.60;;;17.90;99.90;;;;;;5131012;27;20806;-66
2021/09/20 11:37:28;;;;;;;13.10;11.00;;;17.70;99.90;;;;;;5130864;27;20468;-66
2021/09/20 11:39:56;;;;;;;12.70;11.13;;;17.70;99.90;;;;;;5130687;27;21160;-66
2021/09/20 11:42:25;;;;;;;13.53;11.13;;;17.90;99.90;;;;;;5130550;27;21024;-66
2021/09/20 11:44:56;;;;;;;13.07;11.57;;;18.00;99.90;;;;;;5130943;27;20527;-66
2021/09/20 11:47:24;;;;;;;12.40;10.37;;;18.50;99.90;;;;;;5130852;27;20444;-66
2021/09/20 11:50:02;;;;;;;16.90;11.10;;;18.40;99.90;;;;;;5130662;27;20984;-66
2021/09/20 11:52:33;;;;;;;15.90;11.50;;;18.30;99.90;;;;;;5130641;27;20446;-66
2021/09/20 11:55:01;;;;;;;11.43;10.20;;;18.50;99.90;;;;;;5130725;27;20535;-66
2021/09/20 11:57:35;;;;;;;14.03;11.27;;;18.40;99.90;;;;;;5130599;27;20864;-66
2021/09/20 12:00:07;;;;;;;13.30;11.17;;;18.40;99.90;;;;;;5130503;27;20435;-66
2021/09/20 12:02:38;;;;;;;12.90;11.60;;;18.60;99.90;;;;;;5130541;27;20824;-66
2021/09/20 12:05:08;;;;;;;12.33;11.03;;;19.00;99.90;;;;;;5130605;27;20990;-66
2021/09/20 12:07:37;;;;;;;14.77;11.10;;;19.30;99.90;;;;;;5130612;27;20496;-66
2021/09/20 12:10:06;;;;;;;12.27;11.13;;;19.60;99.90;;;;;;5130530;27;20476;-66
2021/09/20 12:12:36;;;;;;;10.73;9.63;;;20.00;99.90;;;;;;5130256;27;20776;-66
2021/09/20 12:15:11;;;;;;;11.47;9.67;;;20.60;99.90;;;;;;5130636;27;20445;-66
2021/09/20 12:17:46;;;;;;;13.10;10.10;;;21.20;99.90;;;;;;5130745;27;20466;-66
2021/09/20 12:20:14;;;;;;;11.10;9.90;;;21.20;99.90;;;;;;5129775;27;20924;-66
2021/09/20 12:22:42;;;;;;;11.10;10.00;;;21.30;99.90;;;;;;5130455;27;20447;-66
2021/09/20 12:25:28;;;;;;;13.80;10.73;;;21.40;99.90;;;;;;5130595;27;20442;-66
2021/09/20 12:27:56;;;;;;;11.70;10.50;;;21.90;99.90;;;;;;5130601;27;20791;-67
2021/09/20 12:30:27;;;;;;;12.27;9.67;;;22.00;99.90;;;;;;5130215;27;20472;-64
2021/09/20 12:33:05;;;;;;;10.63;9.63;;;22.70;99.90;;;;;;5130230;27;20436;-64
2021/09/20 12:35:33;;;;;;;11.10;10.00;;;22.50;99.90;;;;;;5131825;27;20456;-65
2021/09/20 12:38:38;;;;;;;10.93;9.87;;;22.20;99.90;;;;;;5134364;27;20440;-64
2021/09/20 12:41:14;;;;;;;11.10;10.00;;;22.80;99.90;;;;;;5118139;27;20605;-65
2021/09/20 12:43:42;;;;;;;11.90;10.70;;;23.40;99.90;;;;;;5134009;27;20443;-65
2021/09/20 12:46:16;;;;;;;12.10;11.00;;;23.30;99.90;;;;;;5134169;27;20458;-65